createdAt,value
2018-12-11T00:06:16.466Z,5.53
2018-12-11T00:16:32.690Z,4.93
2018-12-11T00:26:47.584Z,5.30
2018-12-11T00:37:03.778Z,5.15
2018-12-11T00:47:18.616Z,5.07
2018-12-11T00:57:33.647Z,5.37
2018-12-11T01:07:48.805Z,5.33
2018-12-11T01:18:04.353Z,5.07
2018-12-11T01:28:19.717Z,5.10
2018-12-11T01:38:35.849Z,4.53
2018-12-11T01:48:51.621Z,4.25
2018-12-11T01:59:07.204Z,4.83
2018-12-11T02:09:22.626Z,5.20
2018-12-11T02:19:38.200Z,5.03
2018-12-11T02:29:54.009Z,5.13
2018-12-11T02:40:09.612Z,5.03
2018-12-11T02:50:25.867Z,5.00
2018-12-11T03:00:41.738Z,5.67
2018-12-11T03:10:57.257Z,4.57
2018-12-11T03:21:12.828Z,4.03
2018-12-11T03:31:27.798Z,3.83
2018-12-11T03:41:42.709Z,4.00
2018-12-11T03:51:57.435Z,3.87
2018-12-11T04:02:12.765Z,3.43
2018-12-11T04:12:28.652Z,3.30
2018-12-11T04:22:44.500Z,3.40
2018-12-11T04:33:00.028Z,3.00
2018-12-11T04:43:15.270Z,4.07
2018-12-11T04:53:30.658Z,4.50
2018-12-11T05:03:46.066Z,3.30
2018-12-11T05:14:02.140Z,3.23
2018-12-11T05:24:17.190Z,3.60
2018-12-11T05:34:33.117Z,3.93
2018-12-11T05:44:48.676Z,4.63
2018-12-11T05:55:04.090Z,4.20
2018-12-11T06:05:19.429Z,3.40
2018-12-11T06:15:34.310Z,4.33
2018-12-11T06:25:49.186Z,3.80
2018-12-11T06:36:04.574Z,3.43
2018-12-11T06:46:21.025Z,3.97
2018-12-11T06:56:37.182Z,3.00
2018-12-11T07:06:52.686Z,3.80
2018-12-11T07:17:08.337Z,3.57
2018-12-11T07:27:24.127Z,4.10
2018-12-11T07:37:40.599Z,3.57
2018-12-11T07:47:55.754Z,4.42
2018-12-11T07:58:12.396Z,4.08
2018-12-11T08:08:27.507Z,4.40
2018-12-11T08:18:42.252Z,5.17
2018-12-11T08:28:57.634Z,12.13
2018-12-11T08:39:12.986Z,10.37
2018-12-11T08:49:27.579Z,4.53
2018-12-11T08:59:43.123Z,3.50
2018-12-11T09:09:58.362Z,3.70
2018-12-11T09:20:13.473Z,5.30
2018-12-11T09:30:29.617Z,3.43
2018-12-11T09:40:44.409Z,3.23
2018-12-11T09:51:00.018Z,2.93
2018-12-11T10:01:15.558Z,2.73
2018-12-11T10:11:30.449Z,2.40
2018-12-11T10:21:46.377Z,2.87
2018-12-11T10:32:01.223Z,3.00
2018-12-11T10:42:16.571Z,2.70
2018-12-11T10:52:32.173Z,2.30
2018-12-11T11:02:52.656Z,1.90
2018-12-11T11:13:08.430Z,2.97
2018-12-11T11:23:23.969Z,2.47
2018-12-11T11:33:38.682Z,3.57
2018-12-11T11:43:53.824Z,2.50
2018-12-11T11:54:08.960Z,2.17
2018-12-11T12:04:24.544Z,2.30
2018-12-11T12:14:40.366Z,2.17
2018-12-11T12:24:55.283Z,2.63
2018-12-11T12:35:11.657Z,2.27
2018-12-11T12:45:27.223Z,2.20
2018-12-11T12:55:42.465Z,2.23
2018-12-11T13:05:57.596Z,2.70
2018-12-11T13:16:13.995Z,2.40
2018-12-11T13:26:28.776Z,2.37
2018-12-11T13:36:44.915Z,2.37
2018-12-11T13:46:59.937Z,2.55
2018-12-11T14:07:49.538Z,3.30
2018-12-11T14:18:04.947Z,3.60
2018-12-11T14:28:20.436Z,2.60
2018-12-11T14:38:35.093Z,2.80
2018-12-11T14:48:50.985Z,3.07
2018-12-11T14:59:06.231Z,4.50
2018-12-11T15:09:27.867Z,2.70
2018-12-11T15:19:43.706Z,2.73
2018-12-11T15:29:58.980Z,3.00
2018-12-11T15:40:14.801Z,3.33
2018-12-11T15:50:30.482Z,3.97
2018-12-11T16:00:45.829Z,4.17
2018-12-11T16:11:01.258Z,3.90
2018-12-11T16:21:16.550Z,3.15
2018-12-11T16:31:32.652Z,5.10
2018-12-11T16:41:49.150Z,4.70
2018-12-11T16:52:04.428Z,3.90
2018-12-11T17:02:20.006Z,2.97
2018-12-11T17:12:35.523Z,3.07
2018-12-11T17:22:51.888Z,5.07
2018-12-11T17:33:06.753Z,5.70
2018-12-11T17:43:22.139Z,4.47
2018-12-11T17:53:37.783Z,15.53
2018-12-11T18:03:53.167Z,4.57
2018-12-11T18:14:08.019Z,4.10
2018-12-11T18:24:23.524Z,3.87
2018-12-11T18:34:45.070Z,3.62
2018-12-11T18:45:03.257Z,4.73
2018-12-11T18:55:17.718Z,5.00
2018-12-11T19:05:33.429Z,5.37
2018-12-11T19:15:49.007Z,4.83
2018-12-11T19:26:04.157Z,5.60
2018-12-11T19:36:19.980Z,6.13
2018-12-11T19:46:35.507Z,6.27
2018-12-11T19:56:51.656Z,6.40
2018-12-11T20:07:07.361Z,7.00
2018-12-11T20:17:22.418Z,10.23
2018-12-11T20:27:37.642Z,7.73
2018-12-11T20:37:53.157Z,8.93
2018-12-11T20:48:08.427Z,9.70
2018-12-11T20:58:24.323Z,8.27
2018-12-11T21:08:39.146Z,8.95
2018-12-11T21:18:55.015Z,17.37
2018-12-11T21:29:10.117Z,8.40
2018-12-11T21:39:25.321Z,8.63
2018-12-11T21:49:40.801Z,7.10
2018-12-11T21:59:56.206Z,8.80
2018-12-11T22:10:10.934Z,9.53
2018-12-11T22:20:26.282Z,9.83
2018-12-11T22:30:41.497Z,9.40
2018-12-11T22:40:56.854Z,12.10
2018-12-11T22:51:13.242Z,10.07
2018-12-11T23:01:28.446Z,8.27
2018-12-11T23:11:43.957Z,7.30
2018-12-11T23:21:59.373Z,7.50
2018-12-11T23:32:14.454Z,8.00
2018-12-11T23:42:30.555Z,7.67
2018-12-11T23:52:45.983Z,7.03
